createdAt,value
2023-01-28T00:00:26.573Z,101192.81
2023-01-28T00:03:18.315Z,101195.31
2023-01-28T00:06:08.472Z,101191.94
2023-01-28T00:08:57.241Z,101192.78
2023-01-28T00:11:46.095Z,101184.25
2023-01-28T00:14:34.825Z,101188.63
2023-01-28T00:17:24.871Z,101187.13
2023-01-28T00:20:14.064Z,101191.81
2023-01-28T00:23:02.866Z,101193.81
2023-01-28T00:25:51.599Z,101194.66
2023-01-28T00:28:40.209Z,101198.34
2023-01-28T00:31:29.612Z,101201.31
2023-01-28T00:34:19.746Z,101200.63
2023-01-28T00:37:08.476Z,101194.31
2023-01-28T00:39:57.152Z,101189.78
2023-01-28T00:42:45.911Z,101193.00
2023-01-28T00:45:34.572Z,101194.66
2023-01-28T00:48:23.232Z,101199.00
2023-01-28T00:51:14.856Z,101202.31
2023-01-28T00:54:03.478Z,101211.63
2023-01-28T00:56:53.536Z,101200.00
2023-01-28T00:59:42.202Z,101204.34
2023-01-28T01:02:30.889Z,101195.97
2023-01-28T01:05:19.577Z,101201.66
2023-01-28T01:08:09.714Z,101200.00
2023-01-28T01:11:00.478Z,101196.50
2023-01-28T01:13:52.653Z,101193.34
2023-01-28T01:16:41.308Z,101202.97
2023-01-28T01:19:29.890Z,101198.34
2023-01-28T01:22:18.490Z,101204.00
2023-01-28T01:25:10.465Z,101202.34
2023-01-28T01:27:59.147Z,101207.88
2023-01-28T01:30:47.811Z,101210.56
2023-01-28T01:33:36.760Z,101212.69
2023-01-28T01:36:25.926Z,101211.84
2023-01-28T01:39:14.639Z,101220.03
2023-01-28T01:42:04.976Z,101210.56
2023-01-28T01:45:01.647Z,101214.22
2023-01-28T01:47:55.003Z,101211.38
2023-01-28T01:50:47.141Z,101213.41
2023-01-28T01:53:36.017Z,101206.22
2023-01-28T01:56:27.446Z,101210.41
2023-01-28T01:59:19.883Z,101211.72
2023-01-28T02:02:09.560Z,101215.19
2023-01-28T02:04:58.148Z,101210.34
2023-01-28T02:07:48.213Z,101211.38
2023-01-28T02:10:36.806Z,101214.38
2023-01-28T02:13:28.797Z,101202.69
2023-01-28T02:16:19.097Z,101202.47
2023-01-28T02:19:08.257Z,101206.66
2023-01-28T02:22:08.167Z,101204.63
2023-01-28T02:25:23.581Z,101202.16
2023-01-28T02:28:19.933Z,101211.97
2023-01-28T02:31:12.861Z,101202.34
2023-01-28T02:34:08.575Z,101211.97
2023-01-28T02:37:01.472Z,101207.13
2023-01-28T02:39:53.213Z,101217.81
2023-01-28T02:42:42.859Z,101212.69
2023-01-28T02:45:49.241Z,101215.31
2023-01-28T02:48:37.871Z,101214.00
2023-01-28T02:51:33.355Z,101219.34
2023-01-28T02:54:30.987Z,101221.28
2023-01-28T02:57:34.200Z,101221.34
2023-01-28T03:00:27.556Z,101233.34
2023-01-28T03:03:22.379Z,101230.38
2023-01-28T03:06:13.776Z,101229.00
2023-01-28T03:09:21.958Z,101228.34
2023-01-28T03:12:30.360Z,101220.88
2023-01-28T03:15:39.805Z,101227.00
2023-01-28T03:18:50.347Z,101230.69
2023-01-28T03:22:00.743Z,101233.88
2023-01-28T03:25:09.341Z,101235.56
2023-01-28T03:28:20.282Z,101238.03
2023-01-28T03:31:28.578Z,101238.41
2023-01-28T03:34:36.712Z,101239.91
2023-01-28T03:37:26.907Z,101238.91
2023-01-28T03:40:15.861Z,101243.22
2023-01-28T03:43:04.669Z,101243.38
2023-01-28T03:45:53.626Z,101248.06
2023-01-28T03:48:42.295Z,101244.72
2023-01-28T03:51:32.376Z,101251.34
2023-01-28T03:54:20.990Z,101257.06
2023-01-28T03:57:09.675Z,101252.88
2023-01-28T03:59:58.288Z,101260.25
2023-01-28T04:02:49.641Z,101258.91
2023-01-28T04:05:38.294Z,101262.72
2023-01-28T04:08:28.512Z,101257.22
2023-01-28T04:11:19.316Z,101258.06
2023-01-28T04:14:08.023Z,101264.38
2023-01-28T04:16:56.852Z,101270.72
2023-01-28T04:19:45.498Z,101267.03
2023-01-28T04:22:34.103Z,101260.09
2023-01-28T04:25:24.041Z,101269.72
2023-01-28T04:28:12.597Z,101270.72
2023-01-28T04:31:01.407Z,101275.03
2023-01-28T04:33:50.070Z,101279.06
2023-01-28T04:36:38.814Z,101279.91
2023-01-28T04:39:27.467Z,101281.91
2023-01-28T04:42:17.411Z,101292.56
2023-01-28T04:45:06.902Z,101289.09
2023-01-28T04:47:55.501Z,101288.44
2023-01-28T04:50:44.435Z,101295.44
2023-01-28T04:53:33.112Z,101304.09
2023-01-28T04:56:21.722Z,101298.53
2023-01-28T04:59:11.724Z,101308.06
2023-01-28T05:02:00.436Z,101305.91
2023-01-28T05:04:49.032Z,101313.38
2023-01-28T05:07:37.751Z,101318.59
2023-01-28T05:10:27.519Z,101322.75
2023-01-28T05:13:16.102Z,101330.25
2023-01-28T05:16:06.622Z,101328.75
2023-01-28T05:18:55.267Z,101330.41
2023-01-28T05:21:43.948Z,101329.13
2023-01-28T05:24:32.611Z,101332.78
2023-01-28T05:27:21.406Z,101332.78
2023-01-28T05:30:11.289Z,101336.75
2023-01-28T05:33:01.253Z,101340.41
2023-01-28T05:35:50.011Z,101339.09
2023-01-28T05:38:38.575Z,101336.75
2023-01-28T05:41:27.210Z,101351.78
2023-01-28T05:44:15.713Z,101355.63
2023-01-28T05:47:04.532Z,101350.09
2023-01-28T05:49:54.580Z,101353.78
2023-01-28T05:52:43.202Z,101356.44
2023-01-28T05:55:31.781Z,101358.09
2023-01-28T05:58:20.778Z,101361.78
2023-01-28T06:01:09.390Z,101362.78
2023-01-28T06:03:59.150Z,101360.47
2023-01-28T06:06:49.204Z,101370.13
2023-01-28T06:09:37.797Z,101369.94
2023-01-28T06:12:26.446Z,101383.97
2023-01-28T06:15:15.147Z,101378.81
2023-01-28T06:18:03.886Z,101380.81
2023-01-28T06:20:52.487Z,101391.81
2023-01-28T06:23:42.571Z,101389.47
2023-01-28T06:26:31.140Z,101401.50
2023-01-28T06:29:19.960Z,101403.47
2023-01-28T06:32:08.614Z,101411.16
2023-01-28T06:34:57.560Z,101407.00
2023-01-28T06:37:46.496Z,101414.50
2023-01-28T06:40:36.478Z,101419.16
2023-01-28T06:43:27.638Z,101428.19
2023-01-28T06:46:16.270Z,101432.16
2023-01-28T06:49:05.239Z,101431.00
2023-01-28T06:51:53.808Z,101438.50
2023-01-28T06:54:42.487Z,101434.16
2023-01-28T06:57:32.505Z,101433.81
2023-01-28T07:00:21.902Z,101440.84
2023-01-28T07:03:10.605Z,101438.84
2023-01-28T07:05:59.231Z,101441.50
2023-01-28T07:08:47.905Z,101444.00
2023-01-28T07:11:36.494Z,101446.16
2023-01-28T07:14:26.516Z,101449.47
2023-01-28T07:17:15.245Z,101448.16
2023-01-28T07:20:03.949Z,101445.84
2023-01-28T07:22:52.604Z,101447.66
2023-01-28T07:25:41.209Z,101452.50
2023-01-28T07:28:29.864Z,101447.66
2023-01-28T07:31:19.950Z,101455.84
2023-01-28T07:34:08.594Z,101461.84
2023-01-28T07:36:57.608Z,101454.19
2023-01-28T07:39:46.341Z,101460.16
2023-01-28T07:42:34.957Z,101465.19
2023-01-28T07:45:23.814Z,101463.50
2023-01-28T07:48:14.936Z,101458.53
2023-01-28T07:51:03.541Z,101454.19
2023-01-28T07:53:52.132Z,101457.84
2023-01-28T07:56:40.688Z,101459.84
2023-01-28T07:59:29.316Z,101460.19
2023-01-28T08:02:18.399Z,101463.84
2023-01-28T08:05:09.356Z,101461.84
2023-01-28T08:07:59.366Z,101454.84
2023-01-28T08:10:48.137Z,101463.50
2023-01-28T08:13:36.812Z,101464.81
2023-01-28T08:16:25.373Z,101460.19
2023-01-28T08:19:13.983Z,101465.84
2023-01-28T08:22:03.985Z,101471.16
2023-01-28T08:24:52.593Z,101471.97
2023-01-28T08:27:41.392Z,101466.38
2023-01-28T08:30:30.119Z,101464.50
2023-01-28T08:33:19.870Z,101464.16
2023-01-28T08:36:09.372Z,101475.16
2023-01-28T08:38:59.390Z,101478.16
2023-01-28T08:41:48.054Z,101473.47
2023-01-28T08:44:36.722Z,101479.16
2023-01-28T08:47:25.668Z,101483.34
2023-01-28T08:50:14.483Z,101484.66
2023-01-28T08:53:05.249Z,101480.16
2023-01-28T08:55:56.046Z,101477.81
2023-01-28T08:58:45.052Z,101486.50
2023-01-28T09:01:34.103Z,101495.50
2023-01-28T09:04:22.835Z,101498.69
2023-01-28T09:07:11.424Z,101503.81
2023-01-28T09:10:02.203Z,101507.16
2023-01-28T09:12:52.169Z,101504.00
2023-01-28T09:15:40.809Z,101502.16
2023-01-28T09:18:29.549Z,101509.16
2023-01-28T09:21:18.257Z,101500.50
2023-01-28T09:24:07.329Z,101513.00
2023-01-28T09:26:55.971Z,101506.50
2023-01-28T09:29:46.023Z,101510.81
2023-01-28T09:32:34.713Z,101515.31
2023-01-28T09:35:23.920Z,101518.50
2023-01-28T09:38:12.526Z,101505.66
2023-01-28T09:41:01.126Z,101512.50
2023-01-28T09:43:59.315Z,101509.66
2023-01-28T09:46:49.470Z,101510.66
2023-01-28T09:49:42.027Z,101513.84
2023-01-28T09:52:32.622Z,101507.56
2023-01-28T09:55:26.337Z,101508.50
2023-01-28T09:58:18.108Z,101516.50
2023-01-28T10:01:23.098Z,101513.81
2023-01-28T10:04:23.351Z,101503.81
2023-01-28T10:07:29.363Z,101520.13
2023-01-28T10:10:20.877Z,101517.50
2023-01-28T10:13:21.887Z,101520.16
2023-01-28T10:16:21.305Z,101516.47
2023-01-28T10:19:21.520Z,101520.84
2023-01-28T10:22:15.194Z,101528.66
2023-01-28T10:25:07.031Z,101524.00
2023-01-28T10:27:55.743Z,101523.31
2023-01-28T10:30:45.269Z,101531.69
2023-01-28T10:33:39.976Z,101527.16
2023-01-28T10:36:31.010Z,101524.66
2023-01-28T10:39:22.183Z,101530.84
2023-01-28T10:42:19.642Z,101531.84
2023-01-28T10:45:15.604Z,101530.50
2023-01-28T10:48:08.926Z,101538.84
2023-01-28T10:51:01.814Z,101543.00
2023-01-28T10:53:51.904Z,101548.84
2023-01-28T10:56:42.244Z,101553.03
2023-01-28T10:59:32.827Z,101547.69
2023-01-28T11:02:28.795Z,101552.00
2023-01-28T11:05:20.862Z,101550.03
2023-01-28T11:08:16.778Z,101546.56
2023-01-28T11:11:16.049Z,101537.69
2023-01-28T11:14:04.738Z,101549.19
2023-01-28T11:16:55.593Z,101551.53
2023-01-28T11:19:44.278Z,101540.47
2023-01-28T11:22:35.220Z,101547.81
2023-01-28T11:25:31.704Z,101540.31
2023-01-28T11:28:23.395Z,101550.31
2023-01-28T11:31:16.101Z,101535.31
2023-01-28T11:34:09.231Z,101546.78
2023-01-28T11:37:05.910Z,101539.06
2023-01-28T11:40:05.452Z,101535.75
2023-01-28T11:42:58.186Z,101527.56
2023-01-28T11:45:59.464Z,101516.03
2023-01-28T11:48:54.951Z,101521.03
2023-01-28T11:51:49.888Z,101514.91
2023-01-28T11:54:47.252Z,101521.34
2023-01-28T11:57:39.981Z,101521.34
2023-01-28T12:00:39.516Z,101519.38
2023-01-28T12:03:57.599Z,101522.69
2023-01-28T12:06:58.551Z,101517.16
2023-01-28T12:09:54.783Z,101521.34
2023-01-28T12:13:02.491Z,101522.31
2023-01-28T12:16:24.650Z,101512.25
2023-01-28T12:19:39.838Z,101513.00
2023-01-28T12:22:46.740Z,101515.03
2023-01-28T12:25:46.769Z,101505.69
2023-01-28T12:28:57.777Z,101512.16
2023-01-28T12:32:01.102Z,101504.66
2023-01-28T12:35:19.694Z,101505.31
2023-01-28T12:38:11.285Z,101502.19
2023-01-28T12:41:04.104Z,101504.66
2023-01-28T12:43:59.251Z,101496.00
2023-01-28T12:46:56.775Z,101496.50
2023-01-28T12:49:48.636Z,101493.38
2023-01-28T12:52:41.398Z,101490.47
2023-01-28T12:55:40.565Z,101495.44
2023-01-28T12:58:39.071Z,101499.72
2023-01-28T13:01:31.513Z,101499.72
2023-01-28T13:04:26.962Z,101497.03
2023-01-28T13:07:18.180Z,101495.34
2023-01-28T13:10:15.403Z,101488.66
2023-01-28T13:13:07.764Z,101500.66
2023-01-28T13:15:56.536Z,101491.47
2023-01-28T13:18:46.714Z,101490.34
2023-01-28T13:21:48.675Z,101497.16
2023-01-28T13:24:37.630Z,101500.31
2023-01-28T13:27:29.671Z,101497.66
2023-01-28T13:30:26.297Z,101499.03
2023-01-28T13:33:30.957Z,101501.56
2023-01-28T13:36:26.388Z,101505.47
2023-01-28T13:39:20.141Z,101501.47
2023-01-28T13:42:28.074Z,101503.00
2023-01-28T13:45:26.403Z,101508.50
2023-01-28T13:48:24.875Z,101501.66
2023-01-28T13:51:19.508Z,101502.34
2023-01-28T13:54:09.881Z,101509.31
2023-01-28T13:57:14.422Z,101513.19
2023-01-28T14:00:09.448Z,101518.22
2023-01-28T14:03:33.986Z,101520.53
2023-01-28T14:06:37.195Z,101524.88
2023-01-28T14:09:37.123Z,101513.22
2023-01-28T14:12:48.263Z,101526.88
2023-01-28T14:15:59.141Z,101537.22
2023-01-28T14:18:47.817Z,101539.03
2023-01-28T14:21:36.969Z,101537.22
2023-01-28T14:24:25.831Z,101532.91
2023-01-28T14:27:18.003Z,101536.91
2023-01-28T14:30:13.783Z,101541.53
2023-01-28T14:33:03.810Z,101534.53
2023-01-28T14:35:52.526Z,101537.22
2023-01-28T14:38:43.123Z,101536.88
2023-01-28T14:41:31.904Z,101526.88
2023-01-28T14:44:29.401Z,101521.16
2023-01-28T14:47:37.387Z,101531.19
2023-01-28T14:50:36.546Z,101525.84
2023-01-28T14:53:54.867Z,101532.66
2023-01-28T14:56:55.598Z,101538.16
2023-01-28T14:59:47.179Z,101532.50
2023-01-28T15:02:35.871Z,101523.16
2023-01-28T15:05:27.582Z,101523.50
2023-01-28T15:08:23.599Z,101522.53
2023-01-28T15:11:15.303Z,101517.38
2023-01-28T15:14:04.399Z,101518.38
2023-01-28T15:16:54.413Z,101516.03
2023-01-28T15:19:43.278Z,101525.53
2023-01-28T15:22:32.169Z,101531.88
2023-01-28T15:25:24.365Z,101524.53
2023-01-28T15:28:19.452Z,101516.88
2023-01-28T15:31:08.492Z,101516.38
2023-01-28T15:33:58.701Z,101510.69
2023-01-28T15:36:49.604Z,101508.38
2023-01-28T15:39:38.279Z,101511.53
2023-01-28T15:42:29.440Z,101504.34
2023-01-28T15:45:19.794Z,101502.38
2023-01-28T15:48:08.989Z,101491.00
2023-01-28T15:51:03.203Z,101498.53
2023-01-28T15:53:53.891Z,101499.88
2023-01-28T15:56:42.593Z,101498.50
2023-01-28T15:59:34.028Z,101493.53
2023-01-28T16:02:24.217Z,101495.53
2023-01-28T16:05:27.724Z,101497.53
2023-01-28T16:08:21.753Z,101487.53
2023-01-28T16:11:11.731Z,101493.69
2023-01-28T16:14:01.045Z,101484.03
2023-01-28T16:16:51.923Z,101485.69
2023-01-28T16:19:41.981Z,101488.50
2023-01-28T16:22:36.200Z,101496.19
2023-01-28T16:25:28.052Z,101498.88
2023-01-28T16:28:21.390Z,101505.53
2023-01-28T16:31:13.185Z,101500.66
2023-01-28T16:34:03.879Z,101506.84
2023-01-28T16:36:52.849Z,101514.88
2023-01-28T16:39:49.965Z,101518.56
2023-01-28T16:42:40.134Z,101517.19
2023-01-28T16:45:29.127Z,101518.88
2023-01-28T16:48:17.834Z,101514.22
2023-01-28T16:51:08.159Z,101518.84
2023-01-28T16:53:56.899Z,101510.47
2023-01-28T16:56:46.865Z,101504.97
2023-01-28T16:59:35.675Z,101511.13
2023-01-28T17:02:25.643Z,101515.13
2023-01-28T17:05:15.785Z,101515.53
2023-01-28T17:08:23.122Z,101513.88
2023-01-28T17:11:11.889Z,101521.81
2023-01-28T17:14:00.856Z,101529.50
2023-01-28T17:16:49.653Z,101530.00
2023-01-28T17:19:38.470Z,101543.19
2023-01-28T17:22:28.284Z,101543.88
2023-01-28T17:25:18.829Z,101545.50
2023-01-28T17:28:08.196Z,101545.81
2023-01-28T17:30:57.176Z,101559.66
2023-01-28T17:33:47.115Z,101560.53
2023-01-28T17:36:36.263Z,101570.59
2023-01-28T17:39:25.778Z,101560.25
2023-01-28T17:42:17.298Z,101569.91
2023-01-28T17:45:07.476Z,101571.91
2023-01-28T17:47:56.601Z,101574.91
2023-01-28T17:50:45.570Z,101583.56
2023-01-28T17:53:34.774Z,101574.22
2023-01-28T17:56:25.997Z,101575.91
2023-01-28T17:59:17.542Z,101578.25
2023-01-28T18:02:07.035Z,101582.25
2023-01-28T18:04:56.388Z,101579.88
2023-01-28T18:07:46.045Z,101589.50
2023-01-28T18:10:35.263Z,101581.50
2023-01-28T18:13:24.198Z,101574.31
2023-01-28T18:16:16.195Z,101570.78
2023-01-28T18:19:06.235Z,101569.13
2023-01-28T18:21:56.061Z,101579.09
2023-01-28T18:24:44.712Z,101568.44
2023-01-28T18:27:33.313Z,101580.38
2023-01-28T18:30:22.124Z,101586.22
2023-01-28T18:33:12.112Z,101588.09
2023-01-28T18:36:00.784Z,101592.97
2023-01-28T18:38:49.462Z,101587.81
2023-01-28T18:41:38.047Z,101588.00
2023-01-28T18:44:29.984Z,101593.16
2023-01-28T18:47:18.740Z,101601.19
2023-01-28T18:50:10.352Z,101607.66
2023-01-28T18:52:58.939Z,101606.53
2023-01-28T18:55:47.578Z,101614.03
2023-01-28T18:58:36.235Z,101616.25
2023-01-28T19:01:24.980Z,101626.59
2023-01-28T19:04:14.070Z,101640.94
2023-01-28T19:07:04.772Z,101651.53
2023-01-28T19:09:54.510Z,101658.00
2023-01-28T19:12:43.121Z,101662.53
2023-01-28T19:15:31.817Z,101667.72
2023-01-28T19:18:20.466Z,101663.56
2023-01-28T19:21:09.417Z,101660.72
2023-01-28T19:24:02.027Z,101661.94
2023-01-28T19:26:50.614Z,101658.25
2023-01-28T19:29:39.226Z,101655.59
2023-01-28T19:32:28.833Z,101649.28
2023-01-28T19:35:18.030Z,101653.91
2023-01-28T19:38:09.374Z,101642.63
2023-01-28T19:41:04.645Z,101631.22
2023-01-28T19:43:53.736Z,101629.56
2023-01-28T19:46:42.451Z,101630.44
2023-01-28T19:49:31.595Z,101633.59
2023-01-28T19:52:20.347Z,101637.28
2023-01-28T19:55:10.299Z,101629.13
2023-01-28T19:58:00.490Z,101624.22
2023-01-28T20:00:49.383Z,101631.44
2023-01-28T20:03:38.529Z,101625.94
2023-01-28T20:06:28.397Z,101624.44
2023-01-28T20:09:19.776Z,101608.50
2023-01-28T20:12:11.848Z,101608.56
2023-01-28T20:15:02.008Z,101607.56
2023-01-28T20:17:50.728Z,101606.94
2023-01-28T20:20:39.292Z,101617.25
2023-01-28T20:23:28.443Z,101616.25
2023-01-28T20:26:17.700Z,101589.59
2023-01-28T20:29:07.855Z,101581.75
2023-01-28T20:32:15.521Z,101587.09
2023-01-28T20:35:05.418Z,101594.41
2023-01-28T20:37:53.976Z,101591.94
2023-01-28T20:40:43.902Z,101570.06
2023-01-28T20:43:34.939Z,101573.56
2023-01-28T20:46:25.491Z,101577.25
2023-01-28T20:49:15.599Z,101594.25
2023-01-28T20:52:04.371Z,101595.25
2023-01-28T20:54:53.573Z,101585.59
2023-01-28T20:57:43.825Z,101589.91
2023-01-28T21:00:33.383Z,101594.41
2023-01-28T21:03:22.284Z,101602.63
2023-01-28T21:06:12.321Z,101603.94
2023-01-28T21:09:01.004Z,101601.41
2023-01-28T21:11:49.671Z,101609.28
2023-01-28T21:14:38.277Z,101609.94
2023-01-28T21:17:27.025Z,101616.28
2023-01-28T21:20:15.912Z,101628.13
2023-01-28T21:23:06.001Z,101629.78
2023-01-28T21:25:54.679Z,101625.63
2023-01-28T21:28:43.414Z,101631.94
2023-01-28T21:31:32.297Z,101637.63
2023-01-28T21:34:20.891Z,101638.59
2023-01-28T21:37:09.624Z,101632.59
2023-01-28T21:39:59.691Z,101627.63
2023-01-28T21:42:48.388Z,101633.75
2023-01-28T21:45:36.983Z,101638.41
2023-01-28T21:48:25.867Z,101636.06
2023-01-28T21:51:32.513Z,101641.34
2023-01-28T21:54:21.270Z,101630.91
2023-01-28T21:57:11.289Z,101628.53
2023-01-28T22:00:00.211Z,101632.41
2023-01-28T22:02:48.968Z,101628.06
2023-01-28T22:05:37.526Z,101624.72
2023-01-28T22:08:26.259Z,101626.19
2023-01-28T22:11:14.950Z,101633.47
2023-01-28T22:14:05.028Z,101630.88
2023-01-28T22:16:53.947Z,101622.53
2023-01-28T22:19:47.832Z,101618.88
2023-01-28T22:22:36.562Z,101609.88
2023-01-28T22:25:25.381Z,101611.53
2023-01-28T22:28:14.011Z,101606.75
2023-01-28T22:31:11.689Z,101609.91
2023-01-28T22:34:00.851Z,101604.38
2023-01-28T22:36:49.747Z,101596.75
2023-01-28T22:39:38.368Z,101601.22
2023-01-28T22:42:27.035Z,101588.75
2023-01-28T22:45:15.693Z,101594.63
2023-01-28T22:48:06.053Z,101610.28
2023-01-28T22:50:55.528Z,101597.63
2023-01-28T22:53:44.331Z,101594.00
2023-01-28T22:56:33.233Z,101585.53
2023-01-28T22:59:21.883Z,101588.38
2023-01-28T23:02:10.576Z,101585.53
2023-01-28T23:05:00.682Z,101590.50
2023-01-28T23:07:49.461Z,101599.63
2023-01-28T23:10:38.321Z,101595.66
2023-01-28T23:13:47.988Z,101600.63
2023-01-28T23:16:54.382Z,101597.63
2023-01-28T23:20:00.747Z,101607.97
2023-01-28T23:23:08.678Z,101602.28
2023-01-28T23:25:57.345Z,101595.66
2023-01-28T23:28:45.926Z,101592.50
2023-01-28T23:31:34.562Z,101591.47
2023-01-28T23:34:24.361Z,101591.84
2023-01-28T23:37:14.171Z,101593.63
2023-01-28T23:40:04.270Z,101594.00
2023-01-28T23:42:53.025Z,101593.63
2023-01-28T23:45:41.688Z,101593.25
2023-01-28T23:48:30.550Z,101602.22
2023-01-28T23:51:19.235Z,101605.56
2023-01-28T23:54:08.114Z,101592.44
2023-01-28T23:56:58.065Z,101586.25
2023-01-28T23:59:46.653Z,101586.91
